createdAt,value
2019-02-24T00:00:47.177Z,103482.00
2019-02-24T00:03:19.185Z,103471.00
2019-02-24T00:05:49.560Z,103475.00
2019-02-24T00:08:19.956Z,103485.00
2019-02-24T00:10:50.391Z,103478.00
2019-02-24T00:13:20.838Z,103482.00
2019-02-24T00:15:51.191Z,103463.00
2019-02-24T00:18:21.602Z,103469.00
2019-02-24T00:20:52.080Z,103462.00
2019-02-24T00:23:22.534Z,103458.00
2019-02-24T00:25:52.909Z,103456.00
2019-02-24T00:28:23.319Z,103457.00
2019-02-24T00:30:53.803Z,103453.00
2019-02-24T00:33:24.252Z,103462.00
2019-02-24T00:35:54.615Z,103459.00
2019-02-24T00:38:25.027Z,103468.00
2019-02-24T00:40:55.534Z,103452.00
2019-02-24T00:43:25.917Z,103442.00
2019-02-24T00:45:56.293Z,103441.00
2019-02-24T00:48:26.690Z,103449.00
2019-02-24T00:50:57.066Z,103441.00
2019-02-24T00:53:27.559Z,103442.00
2019-02-24T00:55:57.967Z,103443.00
2019-02-24T00:58:28.447Z,103444.00
2019-02-24T01:00:58.960Z,103435.00
2019-02-24T01:03:30.534Z,103418.00
2019-02-24T01:06:01.029Z,103410.00
2019-02-24T01:08:31.454Z,103414.00
2019-02-24T01:11:01.851Z,103412.00
2019-02-24T01:13:32.306Z,103409.00
2019-02-24T01:16:02.691Z,103410.00
2019-02-24T01:18:33.132Z,103421.00
2019-02-24T01:21:03.518Z,103439.00
2019-02-24T01:23:33.912Z,103431.00
2019-02-24T01:26:04.329Z,103420.00
2019-02-24T01:28:34.726Z,103429.00
2019-02-24T01:31:05.149Z,103430.00
2019-02-24T01:33:35.609Z,103425.00
2019-02-24T01:36:05.993Z,103430.00
2019-02-24T01:38:37.443Z,103428.00
2019-02-24T01:41:07.876Z,103438.00
2019-02-24T01:43:38.330Z,103428.00
2019-02-24T01:46:08.706Z,103433.00
2019-02-24T01:48:39.154Z,103423.00
2019-02-24T01:51:09.572Z,103421.00
2019-02-24T01:53:39.979Z,103437.00
2019-02-24T01:56:10.388Z,103433.00
2019-02-24T01:58:40.810Z,103440.00
2019-02-24T02:01:11.198Z,103435.00
2019-02-24T02:03:41.629Z,103432.00
2019-02-24T02:06:12.030Z,103424.00
2019-02-24T02:08:42.492Z,103415.00
2019-02-24T02:11:13.013Z,103413.00
2019-02-24T02:13:43.440Z,103413.00
2019-02-24T02:16:13.880Z,103401.00
2019-02-24T02:18:44.307Z,103389.00
2019-02-24T02:21:15.689Z,103391.00
2019-02-24T02:23:46.188Z,103389.00
2019-02-24T02:26:16.551Z,103397.00
2019-02-24T02:28:47.936Z,103379.00
2019-02-24T02:31:18.381Z,103381.00
2019-02-24T02:33:48.772Z,103375.00
2019-02-24T02:36:19.176Z,103374.00
2019-02-24T02:38:49.678Z,103369.00
2019-02-24T02:41:20.121Z,103378.00
2019-02-24T02:43:50.596Z,103370.00
2019-02-24T02:46:21.025Z,103378.00
2019-02-24T02:48:53.216Z,103377.00
2019-02-24T02:51:23.650Z,103367.00
2019-02-24T02:53:54.036Z,103379.00
2019-02-24T02:56:24.481Z,103372.00
2019-02-24T02:58:54.922Z,103371.00
2019-02-24T03:01:25.272Z,103365.00
2019-02-24T03:03:55.678Z,103366.00
2019-02-24T03:06:33.560Z,103369.00
2019-02-24T03:09:05.895Z,103376.00
2019-02-24T03:11:37.049Z,103377.00
2019-02-24T03:14:07.496Z,103374.00
2019-02-24T03:16:38.010Z,103379.00
2019-02-24T03:19:08.401Z,103366.00
2019-02-24T03:21:38.827Z,103376.00
2019-02-24T03:24:09.246Z,103362.00
2019-02-24T03:26:39.589Z,103371.00
2019-02-24T03:29:10.009Z,103372.00
2019-02-24T03:31:40.431Z,103373.00
2019-02-24T03:34:11.009Z,103366.00
2019-02-24T03:36:41.401Z,103375.00
2019-02-24T03:39:11.809Z,103371.00
2019-02-24T03:41:42.276Z,103369.00
2019-02-24T03:44:12.683Z,103368.00
2019-02-24T03:46:43.058Z,103364.00
2019-02-24T03:49:13.486Z,103360.00
2019-02-24T03:51:43.909Z,103358.00
2019-02-24T03:54:15.409Z,103347.00
2019-02-24T03:56:46.925Z,103363.00
2019-02-24T03:59:17.438Z,103361.00
2019-02-24T04:01:47.876Z,103357.00
2019-02-24T04:04:18.281Z,103352.00
2019-02-24T04:06:48.651Z,103350.00
2019-02-24T04:09:19.058Z,103347.00
2019-02-24T04:11:49.533Z,103355.00
2019-02-24T04:14:19.950Z,103351.00
2019-02-24T04:16:50.355Z,103330.00
2019-02-24T04:19:33.398Z,103325.00
2019-02-24T04:22:03.827Z,103307.00
2019-02-24T04:24:34.227Z,103302.00
2019-02-24T04:27:04.618Z,103295.00
2019-02-24T04:29:35.086Z,103299.00
2019-02-24T04:32:06.720Z,103292.00
2019-02-24T04:34:38.180Z,103298.00
2019-02-24T04:37:08.596Z,103299.00
2019-02-24T04:39:38.989Z,103296.00
2019-02-24T04:42:09.397Z,103300.00
2019-02-24T04:44:39.866Z,103295.00
2019-02-24T04:47:10.276Z,103299.00
2019-02-24T04:49:40.724Z,103297.00
2019-02-24T04:52:11.115Z,103294.00
2019-02-24T04:54:41.520Z,103304.00
2019-02-24T04:57:11.934Z,103304.00
2019-02-24T04:59:42.363Z,103293.00
2019-02-24T05:02:12.733Z,103285.00
2019-02-24T05:04:43.175Z,103287.00
2019-02-24T05:07:13.690Z,103274.00
2019-02-24T05:09:44.098Z,103282.00
2019-02-24T05:12:14.500Z,103288.00
2019-02-24T05:14:44.927Z,103295.00
2019-02-24T05:17:15.322Z,103300.00
2019-02-24T05:19:45.732Z,103309.00
2019-02-24T05:22:16.170Z,103309.00
2019-02-24T05:24:46.551Z,103308.00
2019-02-24T05:27:17.054Z,103312.00
2019-02-24T05:29:47.485Z,103318.00
2019-02-24T05:32:17.914Z,103317.00
2019-02-24T05:34:48.290Z,103310.00
2019-02-24T05:37:18.715Z,103314.00
2019-02-24T05:39:49.159Z,103316.00
2019-02-24T05:42:19.663Z,103307.00
2019-02-24T05:44:50.051Z,103310.00
2019-02-24T05:47:20.457Z,103310.00
2019-02-24T05:49:50.894Z,103330.00
2019-02-24T05:52:21.276Z,103331.00
2019-02-24T05:54:52.051Z,103329.00
2019-02-24T05:57:22.557Z,103332.00
2019-02-24T05:59:55.471Z,103322.00
2019-02-24T06:02:25.032Z,103322.00
2019-02-24T06:04:55.413Z,103318.00
2019-02-24T06:07:25.788Z,103319.00
2019-02-24T06:09:56.198Z,103320.00
2019-02-24T06:12:26.684Z,103318.00
2019-02-24T06:14:57.075Z,103331.00
2019-02-24T06:17:27.453Z,103314.00
2019-02-24T06:19:57.842Z,103334.00
2019-02-24T06:22:28.219Z,103330.00
2019-02-24T06:24:58.610Z,103337.00
2019-02-24T06:27:28.976Z,103324.00
2019-02-24T06:30:04.972Z,103325.00
2019-02-24T06:32:31.438Z,103325.00
2019-02-24T06:35:01.842Z,103327.00
2019-02-24T06:37:32.211Z,103332.00
2019-02-24T06:40:02.626Z,103319.00
2019-02-24T06:42:32.991Z,103322.00
2019-02-24T06:45:03.553Z,103312.00
2019-02-24T06:47:33.921Z,103307.00
2019-02-24T06:50:06.253Z,103311.00
2019-02-24T06:52:36.628Z,103308.00
2019-02-24T06:55:09.437Z,103313.00
2019-02-24T06:57:39.828Z,103309.00
2019-02-24T07:00:14.385Z,103322.00
2019-02-24T07:02:44.098Z,103323.00
2019-02-24T07:05:14.468Z,103322.00
2019-02-24T07:07:44.862Z,103331.00
2019-02-24T07:10:15.234Z,103345.00
2019-02-24T07:12:45.662Z,103347.00
2019-02-24T07:15:16.095Z,103337.00
2019-02-24T07:17:46.496Z,103346.00
2019-02-24T07:20:16.860Z,103355.00
2019-02-24T07:22:47.248Z,103347.00
2019-02-24T07:25:17.611Z,103346.00
2019-02-24T07:28:00.288Z,103347.00
2019-02-24T07:30:30.670Z,103341.00
2019-02-24T07:33:01.049Z,103339.00
2019-02-24T07:35:32.404Z,103343.00
2019-02-24T07:38:02.859Z,103333.00
2019-02-24T07:40:33.223Z,103334.00
2019-02-24T07:43:03.645Z,103315.00
2019-02-24T07:45:33.977Z,103317.00
2019-02-24T07:48:04.355Z,103318.00
2019-02-24T07:50:34.716Z,103312.00
2019-02-24T07:53:05.170Z,103317.00
2019-02-24T07:55:35.534Z,103331.00
2019-02-24T07:58:05.918Z,103324.00
2019-02-24T08:00:36.280Z,103314.00
2019-02-24T08:03:06.667Z,103305.00
2019-02-24T08:05:37.023Z,103318.00
2019-02-24T08:08:16.049Z,103322.00
2019-02-24T08:10:39.537Z,103331.00
2019-02-24T08:13:09.939Z,103328.00
2019-02-24T08:15:40.339Z,103331.00
2019-02-24T08:18:10.725Z,103341.00
2019-02-24T08:20:41.084Z,103325.00
2019-02-24T08:23:11.470Z,103332.00
2019-02-24T08:25:41.830Z,103332.00
2019-02-24T08:28:12.208Z,103332.00
2019-02-24T08:30:42.577Z,103326.00
2019-02-24T08:33:12.950Z,103322.00
2019-02-24T08:35:43.317Z,103327.00
2019-02-24T08:38:13.691Z,103326.00
2019-02-24T08:40:44.145Z,103329.00
2019-02-24T08:43:14.537Z,103323.00
2019-02-24T08:45:44.904Z,103327.00
2019-02-24T08:48:15.430Z,103334.00
2019-02-24T08:50:45.840Z,103320.00
2019-02-24T08:53:17.193Z,103326.00
2019-02-24T08:55:47.620Z,103314.00
2019-02-24T08:58:18.368Z,103320.00
2019-02-24T09:00:51.273Z,103318.00
2019-02-24T09:03:20.820Z,103317.00
2019-02-24T09:05:51.201Z,103308.00
2019-02-24T09:08:21.580Z,103308.00
2019-02-24T09:10:52.023Z,103289.00
2019-02-24T09:13:22.419Z,103296.00
2019-02-24T09:15:53.455Z,103296.00
2019-02-24T09:18:24.036Z,103313.00
2019-02-24T09:20:54.404Z,103327.00
2019-02-24T09:23:24.806Z,103345.00
2019-02-24T09:25:55.178Z,103334.00
2019-02-24T09:28:25.636Z,103344.00
2019-02-24T09:31:00.757Z,103343.00
2019-02-24T09:33:28.106Z,103346.00
2019-02-24T09:35:58.484Z,103356.00
2019-02-24T09:38:29.854Z,103359.00
2019-02-24T09:41:01.344Z,103363.00
2019-02-24T09:43:33.222Z,103376.00
2019-02-24T09:46:03.601Z,103376.00
2019-02-24T09:48:34.166Z,103367.00
2019-02-24T09:51:04.573Z,103375.00
2019-02-24T09:53:34.974Z,103382.00
2019-02-24T09:56:05.350Z,103385.00
2019-02-24T09:58:35.753Z,103384.00
2019-02-24T10:01:10.586Z,103380.00
2019-02-24T10:03:38.235Z,103372.00
2019-02-24T10:06:11.280Z,103359.00
2019-02-24T10:08:41.816Z,103366.00
2019-02-24T10:11:13.277Z,103358.00
2019-02-24T10:13:43.825Z,103354.00
2019-02-24T10:16:14.256Z,103352.00
2019-02-24T10:18:44.712Z,103340.00
2019-02-24T10:21:15.093Z,103347.00
2019-02-24T10:23:45.662Z,103344.00
2019-02-24T10:26:19.282Z,103343.00
2019-02-24T10:28:52.361Z,103348.00
2019-02-24T10:31:22.710Z,103350.00
2019-02-24T10:33:56.108Z,103350.00
2019-02-24T10:36:26.554Z,103363.00
2019-02-24T10:38:57.070Z,103374.00
2019-02-24T10:41:27.668Z,103371.00
2019-02-24T10:43:58.062Z,103372.00
2019-02-24T10:46:31.653Z,103376.00
2019-02-24T10:49:03.774Z,103377.00
2019-02-24T10:51:37.822Z,103375.00
2019-02-24T10:54:08.269Z,103368.00
2019-02-24T10:56:38.643Z,103365.00
2019-02-24T10:59:09.434Z,103363.00
2019-02-24T11:01:39.957Z,103362.00
2019-02-24T11:04:10.512Z,103363.00
2019-02-24T11:06:41.938Z,103361.00
2019-02-24T11:09:12.397Z,103359.00
2019-02-24T11:11:42.774Z,103363.00
2019-02-24T11:14:25.025Z,103373.00
2019-02-24T11:16:58.380Z,103369.00
2019-02-24T11:19:28.872Z,103368.00
2019-02-24T11:21:59.435Z,103362.00
2019-02-24T11:24:29.826Z,103363.00
2019-02-24T11:27:00.371Z,103361.00
2019-02-24T11:29:30.770Z,103367.00
2019-02-24T11:32:01.135Z,103362.00
2019-02-24T11:34:31.529Z,103362.00
2019-02-24T11:37:01.897Z,103366.00
2019-02-24T11:39:32.294Z,103376.00
2019-02-24T11:42:02.660Z,103371.00
2019-02-24T11:44:33.154Z,103373.00
2019-02-24T11:47:03.675Z,103377.00
2019-02-24T11:49:34.136Z,103371.00
2019-02-24T11:52:04.492Z,103373.00
2019-02-24T11:54:34.881Z,103375.00
2019-02-24T11:57:05.252Z,103383.00
2019-02-24T11:59:35.652Z,103384.00
2019-02-24T12:02:06.059Z,103385.00
2019-02-24T12:04:36.438Z,103382.00
2019-02-24T12:07:06.799Z,103380.00
2019-02-24T12:09:38.110Z,103365.00
2019-02-24T12:12:08.577Z,103359.00
2019-02-24T12:14:41.799Z,103368.00
2019-02-24T12:17:14.885Z,103359.00
2019-02-24T12:19:45.347Z,103375.00
2019-02-24T12:22:16.211Z,103367.00
2019-02-24T12:24:46.636Z,103368.00
2019-02-24T12:27:17.006Z,103373.00
2019-02-24T12:29:47.522Z,103361.00
2019-02-24T12:32:17.890Z,103361.00
2019-02-24T12:34:48.370Z,103360.00
2019-02-24T12:37:18.802Z,103351.00
2019-02-24T12:39:49.197Z,103343.00
2019-02-24T12:42:19.560Z,103351.00
2019-02-24T12:44:49.953Z,103356.00
2019-02-24T12:47:20.317Z,103353.00
2019-02-24T12:49:50.709Z,103346.00
2019-02-24T12:52:21.084Z,103350.00
2019-02-24T12:54:51.782Z,103340.00
2019-02-24T12:57:22.152Z,103336.00
2019-02-24T12:59:52.549Z,103340.00
2019-02-24T13:02:23.093Z,103343.00
2019-02-24T13:04:53.480Z,103338.00
2019-02-24T13:07:23.846Z,103341.00
2019-02-24T13:09:54.276Z,103336.00
2019-02-24T13:12:24.606Z,103339.00
2019-02-24T13:14:55.001Z,103340.00
2019-02-24T13:17:25.392Z,103321.00
2019-02-24T13:19:55.784Z,103318.00
2019-02-24T13:22:26.215Z,103311.00
2019-02-24T13:24:56.578Z,103313.00
2019-02-24T13:27:26.937Z,103309.00
2019-02-24T13:29:57.342Z,103308.00
2019-02-24T13:32:27.713Z,103298.00
2019-02-24T13:34:58.190Z,103298.00
2019-02-24T13:37:28.552Z,103305.00
2019-02-24T13:40:00.052Z,103303.00
2019-02-24T13:42:30.413Z,103306.00
2019-02-24T13:45:00.829Z,103303.00
2019-02-24T13:47:31.195Z,103304.00
2019-02-24T13:50:01.593Z,103297.00
2019-02-24T13:52:33.229Z,103292.00
2019-02-24T13:55:04.122Z,103288.00
2019-02-24T13:57:34.492Z,103290.00
2019-02-24T14:00:22.325Z,103289.00
2019-02-24T14:02:52.692Z,103286.00
2019-02-24T14:05:23.095Z,103289.00
2019-02-24T14:07:56.468Z,103286.00
2019-02-24T14:10:26.881Z,103288.00
2019-02-24T14:12:58.967Z,103284.00
2019-02-24T14:15:29.409Z,103278.00
2019-02-24T14:17:59.779Z,103274.00
2019-02-24T14:20:30.221Z,103277.00
2019-02-24T14:23:00.623Z,103279.00
2019-02-24T14:25:31.013Z,103280.00
2019-02-24T14:28:02.957Z,103274.00
2019-02-24T14:30:33.386Z,103278.00
2019-02-24T14:33:03.999Z,103290.00
2019-02-24T14:35:37.546Z,103285.00
2019-02-24T14:38:08.240Z,103282.00
2019-02-24T14:40:38.634Z,103273.00
2019-02-24T14:43:09.124Z,103266.00
2019-02-24T14:45:39.895Z,103269.00
2019-02-24T14:48:10.262Z,103265.00
2019-02-24T14:50:40.656Z,103258.00
2019-02-24T14:53:11.018Z,103252.00
2019-02-24T14:55:54.110Z,103255.00
2019-02-24T14:58:24.512Z,103261.00
2019-02-24T15:00:54.921Z,103257.00
2019-02-24T15:03:25.361Z,103254.00
2019-02-24T15:05:55.771Z,103255.00
2019-02-24T15:08:27.205Z,103258.00
2019-02-24T15:10:57.603Z,103252.00
2019-02-24T15:13:28.115Z,103256.00
2019-02-24T15:15:58.669Z,103261.00
2019-02-24T15:18:29.063Z,103260.00
2019-02-24T15:20:59.448Z,103255.00
2019-02-24T15:23:29.850Z,103236.00
2019-02-24T15:26:00.221Z,103236.00
2019-02-24T15:28:30.627Z,103227.00
2019-02-24T15:31:01.214Z,103229.00
2019-02-24T15:33:31.602Z,103230.00
2019-02-24T15:36:03.310Z,103237.00
2019-02-24T15:38:33.782Z,103246.00
2019-02-24T15:41:04.396Z,103246.00
2019-02-24T15:43:34.773Z,103253.00
2019-02-24T15:46:05.142Z,103261.00
2019-02-24T15:48:35.534Z,103257.00
2019-02-24T15:51:06.042Z,103253.00
2019-02-24T15:53:36.435Z,103261.00
2019-02-24T15:56:06.793Z,103263.00
2019-02-24T15:58:37.269Z,103263.00
2019-02-24T16:01:07.649Z,103269.00
2019-02-24T16:03:39.635Z,103271.00
2019-02-24T16:06:09.993Z,103267.00
2019-02-24T16:08:40.396Z,103264.00
2019-02-24T16:11:10.754Z,103276.00
2019-02-24T16:13:41.144Z,103277.00
2019-02-24T16:16:11.496Z,103268.00
2019-02-24T16:18:41.879Z,103272.00
2019-02-24T16:21:12.235Z,103259.00
2019-02-24T16:23:42.624Z,103270.00
2019-02-24T16:26:12.976Z,103276.00
2019-02-24T16:28:43.365Z,103275.00
2019-02-24T16:31:13.719Z,103281.00
2019-02-24T16:33:44.108Z,103285.00
2019-02-24T16:36:14.463Z,103274.00
2019-02-24T16:38:45.236Z,103277.00
2019-02-24T16:41:15.924Z,103276.00
2019-02-24T16:43:46.398Z,103275.00
2019-02-24T16:46:16.752Z,103276.00
2019-02-24T16:48:47.209Z,103278.00
2019-02-24T16:51:17.565Z,103266.00
2019-02-24T16:53:47.945Z,103261.00
2019-02-24T16:56:18.299Z,103263.00
2019-02-24T16:58:48.679Z,103256.00
2019-02-24T17:01:19.115Z,103253.00
2019-02-24T17:03:49.504Z,103254.00
2019-02-24T17:06:20.056Z,103250.00
2019-02-24T17:08:51.884Z,103244.00
2019-02-24T17:11:22.505Z,103236.00
2019-02-24T17:13:52.884Z,103243.00
2019-02-24T17:16:23.246Z,103243.00
2019-02-24T17:18:53.636Z,103244.00
2019-02-24T17:21:24.001Z,103244.00
2019-02-24T17:23:54.518Z,103245.00
2019-02-24T17:26:24.873Z,103258.00
2019-02-24T17:28:57.113Z,103247.00
2019-02-24T17:31:28.577Z,103241.00
2019-02-24T17:33:59.063Z,103236.00
2019-02-24T17:36:29.488Z,103234.00
2019-02-24T17:38:59.872Z,103246.00
2019-02-24T17:41:30.227Z,103252.00
2019-02-24T17:44:00.624Z,103246.00
2019-02-24T17:46:30.998Z,103249.00
2019-02-24T17:49:01.655Z,103253.00
2019-02-24T17:51:32.012Z,103263.00
2019-02-24T17:54:02.575Z,103258.00
2019-02-24T17:56:34.130Z,103261.00
2019-02-24T17:59:04.526Z,103273.00
2019-02-24T18:01:34.906Z,103270.00
2019-02-24T18:04:05.352Z,103283.00
2019-02-24T18:06:35.709Z,103296.00
2019-02-24T18:09:06.529Z,103291.00
2019-02-24T18:11:37.161Z,103284.00
2019-02-24T18:14:07.567Z,103284.00
2019-02-24T18:16:38.031Z,103283.00
2019-02-24T18:19:08.414Z,103269.00
2019-02-24T18:21:38.773Z,103276.00
2019-02-24T18:24:09.227Z,103277.00
2019-02-24T18:26:39.855Z,103269.00
2019-02-24T18:29:10.239Z,103263.00
2019-02-24T18:31:40.595Z,103263.00
2019-02-24T18:34:10.988Z,103263.00
2019-02-24T18:36:41.417Z,103260.00
2019-02-24T18:39:11.818Z,103270.00
2019-02-24T18:41:43.319Z,103266.00
2019-02-24T18:44:13.699Z,103255.00
2019-02-24T18:46:44.064Z,103259.00
2019-02-24T18:49:14.623Z,103252.00
2019-02-24T18:51:44.991Z,103252.00
2019-02-24T18:54:15.422Z,103248.00
2019-02-24T18:56:45.798Z,103247.00
2019-02-24T18:59:16.216Z,103245.00
2019-02-24T19:01:46.583Z,103251.00
2019-02-24T19:04:16.977Z,103251.00
2019-02-24T19:06:47.333Z,103246.00
2019-02-24T19:09:18.641Z,103266.00
2019-02-24T19:11:48.996Z,103265.00
2019-02-24T19:14:19.383Z,103250.00
2019-02-24T19:16:49.796Z,103262.00
2019-02-24T19:19:25.535Z,103260.00
2019-02-24T19:21:52.235Z,103251.00
2019-02-24T19:24:22.629Z,103253.00
2019-02-24T19:26:53.578Z,103259.00
2019-02-24T19:29:24.001Z,103265.00
2019-02-24T19:31:54.367Z,103275.00
2019-02-24T19:34:25.411Z,103263.00
2019-02-24T19:36:55.903Z,103247.00
2019-02-24T19:39:26.324Z,103242.00
2019-02-24T19:41:57.191Z,103229.00
2019-02-24T19:44:27.699Z,103234.00
2019-02-24T19:46:58.127Z,103240.00
2019-02-24T19:49:28.479Z,103235.00
2019-02-24T19:51:58.846Z,103245.00
2019-02-24T19:54:29.256Z,103240.00
2019-02-24T19:56:59.692Z,103245.00
2019-02-24T19:59:30.085Z,103238.00
2019-02-24T20:02:00.444Z,103236.00
2019-02-24T20:04:30.907Z,103243.00
2019-02-24T20:07:01.259Z,103242.00
2019-02-24T20:09:32.727Z,103238.00
2019-02-24T20:12:03.352Z,103256.00
2019-02-24T20:14:33.740Z,103255.00
2019-02-24T20:17:04.125Z,103242.00
2019-02-24T20:19:34.546Z,103242.00
2019-02-24T20:22:05.076Z,103239.00
2019-02-24T20:24:35.504Z,103234.00
2019-02-24T20:27:05.947Z,103249.00
2019-02-24T20:29:36.351Z,103257.00
2019-02-24T20:32:06.716Z,103267.00
2019-02-24T20:34:37.126Z,103265.00
2019-02-24T20:37:09.024Z,103268.00
2019-02-24T20:39:39.412Z,103270.00
2019-02-24T20:42:09.772Z,103277.00
2019-02-24T20:44:40.172Z,103279.00
2019-02-24T20:47:10.531Z,103278.00
2019-02-24T20:49:40.921Z,103282.00
2019-02-24T20:52:11.583Z,103274.00
2019-02-24T20:54:41.976Z,103278.00
2019-02-24T20:57:12.423Z,103261.00
2019-02-24T20:59:42.858Z,103268.00
2019-02-24T21:02:13.183Z,103274.00
2019-02-24T21:04:43.572Z,103280.00
2019-02-24T21:07:13.970Z,103292.00
2019-02-24T21:09:44.342Z,103283.00
2019-02-24T21:12:14.736Z,103302.00
2019-02-24T21:14:45.092Z,103301.00
2019-02-24T21:17:15.490Z,103301.00
2019-02-24T21:19:45.851Z,103300.00
2019-02-24T21:22:16.238Z,103301.00
2019-02-24T21:24:46.602Z,103299.00
2019-02-24T21:27:16.993Z,103287.00
2019-02-24T21:29:47.361Z,103291.00
2019-02-24T21:32:17.745Z,103276.00
2019-02-24T21:34:48.159Z,103268.00
2019-02-24T21:37:18.598Z,103267.00
2019-02-24T21:42:48.491Z,103281.00
2019-02-24T21:45:28.532Z,103291.00
2019-02-24T21:47:58.981Z,103283.00
2019-02-24T21:50:29.505Z,103280.00
2019-02-24T21:52:59.887Z,103267.00
2019-02-24T21:55:30.281Z,103285.00
2019-02-24T21:58:00.646Z,103277.00
2019-02-24T22:00:31.035Z,103272.00
2019-02-24T22:03:01.420Z,103270.00
2019-02-24T22:05:31.816Z,103270.00
2019-02-24T22:08:02.272Z,103274.00
2019-02-24T22:10:32.754Z,103275.00
2019-02-24T22:13:03.197Z,103272.00
2019-02-24T22:15:33.804Z,103265.00
2019-02-24T22:18:04.323Z,103272.00
2019-02-24T22:20:34.830Z,103270.00
2019-02-24T22:23:05.276Z,103256.00
2019-02-24T22:25:48.470Z,103258.00
2019-02-24T22:28:19.476Z,103252.00
2019-02-24T22:30:50.420Z,103246.00
2019-02-24T22:33:20.894Z,103247.00
2019-02-24T22:35:51.872Z,103252.00
2019-02-24T22:38:22.910Z,103258.00
2019-02-24T22:40:54.574Z,103257.00
2019-02-24T22:43:25.361Z,103257.00
2019-02-24T22:45:57.936Z,103254.00
2019-02-24T22:48:28.825Z,103254.00
2019-02-24T22:50:59.592Z,103247.00
2019-02-24T22:53:31.321Z,103242.00
2019-02-24T22:56:01.895Z,103240.00
2019-02-24T22:58:32.780Z,103226.00
2019-02-24T23:01:06.871Z,103226.00
2019-02-24T23:03:39.511Z,103234.00
2019-02-24T23:06:09.898Z,103229.00
2019-02-24T23:08:40.257Z,103235.00
2019-02-24T23:11:10.641Z,103231.00
2019-02-24T23:13:41.042Z,103225.00
2019-02-24T23:16:11.422Z,103236.00
2019-02-24T23:18:41.790Z,103251.00
2019-02-24T23:21:12.170Z,103248.00
2019-02-24T23:23:42.527Z,103251.00
2019-02-24T23:26:12.885Z,103248.00
2019-02-24T23:28:43.297Z,103238.00
2019-02-24T23:31:13.796Z,103240.00
2019-02-24T23:33:44.181Z,103243.00
2019-02-24T23:36:14.540Z,103239.00
2019-02-24T23:38:44.936Z,103237.00
2019-02-24T23:41:15.297Z,103233.00
2019-02-24T23:43:45.682Z,103234.00
2019-02-24T23:46:16.039Z,103250.00
2019-02-24T23:48:46.422Z,103241.00
2019-02-24T23:51:16.834Z,103236.00
2019-02-24T23:53:48.786Z,103232.00
2019-02-24T23:56:19.147Z,103225.00
2019-02-24T23:58:49.544Z,103220.00
